This is the latest recevied weather packets stored in our database for station/object DC1SK-6. If no packets are shown the sender has not sent any weather packets the latest 10 day(s).
| Time | Temp. | Humidity | Pressure | Rain* | Wind** | Luminosity | Snow |
|---|---|---|---|---|---|---|---|
| 1777369559 | 14.44° C | 52% | - | 0 mm | - | 676 W/m² | - |
| 1777368994 | 14.44° C | 53% | - | 0 mm | - | 729 W/m² | - |
| 1777368414 | 13.89° C | 54% | - | 0 mm | - | 719 W/m² | - |
| 1777367879 | 13.89° C | 51% | - | 0 mm | - | 719 W/m² | - |
| 1777367304 | 13.89° C | 51% | - | 0 mm | - | 719 W/m² | - |
| 1777366804 | 13.33° C | 54% | - | 0 mm | - | 719 W/m² | - |
| 1777366299 | 13.33° C | 54% | - | 0 mm | - | 719 W/m² | - |
| 1777365814 | 12.78° C | 55% | - | 0 mm | - | 719 W/m² | - |
| 1777365279 | 12.78° C | 56% | - | 0 mm | - | 719 W/m² | - |
| 1777364779 | 12.22° C | 57% | - | 0 mm | - | 638 W/m² | - |
| 1777364234 | 11.11° C | 57% | - | 0 mm | - | 494 W/m² | - |
| 1777363689 | 11.11° C | 58% | - | 0 mm | - | 309 W/m² | - |
| 1777363204 | 11.11° C | 58% | - | 0 mm | - | 369 W/m² | - |
| 1777362654 | 11.11° C | 58% | - | 0 mm | - | 500 W/m² | - |
| 1777362104 | 10.56° C | 58% | - | 0 mm | - | 272 W/m² | - |
| 1777361529 | 10° C | 60% | - | 0 mm | - | 272 W/m² | - |
| 1777361049 | 10° C | 60% | - | 0 mm | - | 272 W/m² | - |
| 1777360499 | 9.44° C | 60% | - | 0 mm | - | 272 W/m² | - |
| 1777359979 | 9.44° C | 60% | - | 0 mm | - | 272 W/m² | - |
| 1777359444 | 9.44° C | 60% | - | 0 mm | - | 272 W/m² | - |
| 1777358854 | 10° C | 59% | - | 0 mm | - | 233 W/m² | - |
| 1777358319 | 10.56° C | 56% | - | 0 mm | - | 233 W/m² | - |
| 1777357744 | 10.56° C | 57% | - | 0 mm | - | 208 W/m² | - |
| 1777357214 | 8.89° C | 61% | - | 0 mm | - | 208 W/m² | - |
| 1777356644 | 8.89° C | 62% | - | 0 mm | - | 138 W/m² | - |
* Rain latest hour (hover to see other rain measurements)
** Current wind speed in m/s (hover to see current wind gust speed)